Pagrindinis puslapis
METAR-TAF:

METAR-TAF

Oro uostai :

Ankaros oro uostas

Ankara Esenboğa, Turkija

platuma: 40-07N, ilguma: 032-59E, Aukštis: 953 m

Dabartinis oras

Ataskaita buvo paskelbta 44 minutes, ne 11:20 UTC
Vėjas 13 kt iš Vakarų
Temperatūra 19°C
Drėgmė 37%
Slėgis 1014 hPa
Matomumas 10 km arba daugiau
Išsisklaidę debesys ne aukštis 4000 ft
Išsisklaidę debesys ne aukštis 8000 ft

METAR: LTAC 041120Z 27013KT 9999 SCT040 SCT080 19/04 Q1014 NOSIG RMK RWY21L 26015KT RWY03L 27011KT 240V300 RWY21R 27014KT 240V300

Laikas: 15:04 (12:04 UTC)

Prognozė

Ataskaita buvo paskelbta 1 valandą ir 24 minutes, ne 10:40 UTC
Prognozė galioja nuo 04 metu 12 UTC su 05 metu 12 UTC
Vėjas 12 kt iš Vakarų/Pietvakarių
Matomumas 10 km arba daugiau
Išsisklaidę debesys ne aukštis 4000 ft
Išsisklaidę debesys ne aukštis 10000 ft
Tapsmas
nuo 04 metu 15 UTC su 04 metu 17 UTC
Vėjas 2 kt nuo kintamojo kryptimis
Matomumas 10 km arba daugiau
nėra debesų žemiau 1500 m ir nėra kamuolinių lietaus debesų

TAF: LTAC 041040Z 0412/0512 24012KT 9999 SCT040 SCT100 BECMG 0415/0417 VRB02KT CAVOK

Orai ataskaitas ir orų prognozės (METAR, TAF).

turimą stotys yra geltonos ir raudonos taškus žemėlapyje.

Perkelti pele per norėdami pamatyti stoties vardą.

Tada spustelėkite, norėdami matyti oro stebėjimo ir prognozės.

Norėdami pakeisti žemėlapį: spustelėkite ant žalios mygtukų su juodo kryžiaus žemyn,; žalią mygtuką su brūkšneliu, jei norite nutolinti; arba žalių rodyklių gretimoms žemėlapius.


METAR-TAF: